sensor_id;sensor_type;location;lat;lon;timestamp;pressure;altitude;pressure_sealevel;temperature;humidity
74552;BME280;63025;55.472;38.432;2022-10-31T00:03:43;98508.16;;;1.15;68.26
74552;BME280;63025;55.472;38.432;2022-10-31T00:06:09;98505.16;;;1.18;67.68
74552;BME280;63025;55.472;38.432;2022-10-31T00:08:34;98506.44;;;1.22;67.51
74552;BME280;63025;55.472;38.432;2022-10-31T00:11:00;98509.72;;;1.24;67.11
74552;BME280;63025;55.472;38.432;2022-10-31T00:13:26;98504.78;;;1.21;67.27
74552;BME280;63025;55.472;38.432;2022-10-31T00:15:52;98501.38;;;1.27;67.25
74552;BME280;63025;55.472;38.432;2022-10-31T00:18:18;98494.72;;;1.31;66.92
74552;BME280;63025;55.472;38.432;2022-10-31T00:20:44;98496.16;;;1.34;67.39
74552;BME280;63025;55.472;38.432;2022-10-31T00:23:11;98493.53;;;1.34;68.00
74552;BME280;63025;55.472;38.432;2022-10-31T00:25:38;98484.19;;;1.38;67.69
74552;BME280;63025;55.472;38.432;2022-10-31T00:28:05;98481.97;;;1.41;67.39
74552;BME280;63025;55.472;38.432;2022-10-31T00:30:32;98481.78;;;1.43;67.35
74552;BME280;63025;55.472;38.432;2022-10-31T00:32:58;98478.38;;;1.49;67.12
74552;BME280;63025;55.472;38.432;2022-10-31T00:35:24;98480.66;;;1.52;67.42
74552;BME280;63025;55.472;38.432;2022-10-31T00:37:50;98481.66;;;1.51;67.00
74552;BME280;63025;55.472;38.432;2022-10-31T00:40:16;98477.00;;;1.53;66.32
74552;BME280;63025;55.472;38.432;2022-10-31T00:42:41;98479.47;;;1.55;66.94
74552;BME280;63025;55.472;38.432;2022-10-31T00:45:09;98472.53;;;1.54;66.71
74552;BME280;63025;55.472;38.432;2022-10-31T00:47:35;98476.22;;;1.59;66.99
74552;BME280;63025;55.472;38.432;2022-10-31T00:50:01;98466.63;;;1.58;67.43
74552;BME280;63025;55.472;38.432;2022-10-31T00:52:28;98466.72;;;1.65;66.56
74552;BME280;63025;55.472;38.432;2022-10-31T00:54:55;98469.75;;;1.62;65.41
74552;BME280;63025;55.472;38.432;2022-10-31T00:57:21;98473.44;;;1.67;66.09
74552;BME280;63025;55.472;38.432;2022-10-31T00:59:47;98475.25;;;1.67;65.57
74552;BME280;63025;55.472;38.432;2022-10-31T01:02:13;98470.59;;;1.69;65.66
74552;BME280;63025;55.472;38.432;2022-10-31T01:04:39;98458.56;;;1.66;65.75
74552;BME280;63025;55.472;38.432;2022-10-31T01:07:05;98467.00;;;1.76;65.23
74552;BME280;63025;55.472;38.432;2022-10-31T01:09:31;98474.31;;;1.74;64.92
74552;BME280;63025;55.472;38.432;2022-10-31T01:11:58;98474.75;;;1.78;65.42
74552;BME280;63025;55.472;38.432;2022-10-31T01:14:24;98469.03;;;1.74;65.48
74552;BME280;63025;55.472;38.432;2022-10-31T01:16:50;98469.44;;;1.78;65.36
74552;BME280;63025;55.472;38.432;2022-10-31T01:19:16;98468.03;;;1.75;65.27
74552;BME280;63025;55.472;38.432;2022-10-31T01:21:42;98480.44;;;1.75;65.19
74552;BME280;63025;55.472;38.432;2022-10-31T01:24:08;98464.56;;;1.75;65.06
74552;BME280;63025;55.472;38.432;2022-10-31T01:26:37;98465.56;;;1.74;65.20
74552;BME280;63025;55.472;38.432;2022-10-31T01:29:05;98472.50;;;1.75;64.73
74552;BME280;63025;55.472;38.432;2022-10-31T01:31:34;98471.09;;;1.79;64.31
74552;BME280;63025;55.472;38.432;2022-10-31T01:34:01;98468.84;;;1.76;64.13
74552;BME280;63025;55.472;38.432;2022-10-31T01:36:35;98477.59;;;1.76;65.09
74552;BME280;63025;55.472;38.432;2022-10-31T01:39:05;98466.78;;;1.78;65.04
74552;BME280;63025;55.472;38.432;2022-10-31T01:41:33;98464.38;;;1.76;64.66
74552;BME280;63025;55.472;38.432;2022-10-31T01:44:02;98475.16;;;1.75;64.01
74552;BME280;63025;55.472;38.432;2022-10-31T01:47:02;98466.56;;;1.73;64.80
74552;BME280;63025;55.472;38.432;2022-10-31T01:49:39;98475.91;;;1.69;65.31
74552;BME280;63025;55.472;38.432;2022-10-31T01:52:16;98472.06;;;1.71;64.93
74552;BME280;63025;55.472;38.432;2022-10-31T01:54:51;98477.78;;;1.75;64.89
74552;BME280;63025;55.472;38.432;2022-10-31T01:57:20;98472.63;;;1.67;65.15
74552;BME280;63025;55.472;38.432;2022-10-31T01:59:54;98473.75;;;1.58;65.29
74552;BME280;63025;55.472;38.432;2022-10-31T02:02:23;98476.50;;;1.64;64.98
74552;BME280;63025;55.472;38.432;2022-10-31T02:04:50;98474.44;;;1.66;64.89
74552;BME280;63025;55.472;38.432;2022-10-31T02:07:25;98486.25;;;1.64;65.70
74552;BME280;63025;55.472;38.432;2022-10-31T02:09:56;98476.91;;;1.68;64.90
74552;BME280;63025;55.472;38.432;2022-10-31T02:12:23;98473.25;;;1.69;65.61
74552;BME280;63025;55.472;38.432;2022-10-31T02:14:50;98477.91;;;1.67;65.09
74552;BME280;63025;55.472;38.432;2022-10-31T02:17:16;98470.19;;;1.65;65.78
74552;BME280;63025;55.472;38.432;2022-10-31T02:20:04;98473.38;;;1.61;65.94
74552;BME280;63025;55.472;38.432;2022-10-31T02:22:59;98467.88;;;1.56;65.55
74552;BME280;63025;55.472;38.432;2022-10-31T02:31:35;98472.44;;;1.47;67.23
74552;BME280;63025;55.472;38.432;2022-10-31T02:34:27;98485.69;;;1.47;67.59
74552;BME280;63025;55.472;38.432;2022-10-31T02:37:11;98482.72;;;1.35;67.88
74552;BME280;63025;55.472;38.432;2022-10-31T02:43:01;98492.75;;;1.40;68.96
74552;BME280;63025;55.472;38.432;2022-10-31T02:45:38;98498.91;;;1.47;69.03
74552;BME280;63025;55.472;38.432;2022-10-31T02:48:15;98487.59;;;1.53;69.53
74552;BME280;63025;55.472;38.432;2022-10-31T02:50:52;98490.78;;;1.48;69.38
74552;BME280;63025;55.472;38.432;2022-10-31T02:53:19;98481.72;;;1.36;70.04
74552;BME280;63025;55.472;38.432;2022-10-31T02:55:56;98492.69;;;1.33;70.08
74552;BME280;63025;55.472;38.432;2022-10-31T02:58:24;98498.34;;;1.30;71.25
74552;BME280;63025;55.472;38.432;2022-10-31T03:01:24;98501.13;;;1.22;72.05
74552;BME280;63025;55.472;38.432;2022-10-31T03:09:42;98497.41;;;1.17;73.93
74552;BME280;63025;55.472;38.432;2022-10-31T03:12:15;98487.81;;;1.16;73.49
74552;BME280;63025;55.472;38.432;2022-10-31T03:14:55;98479.81;;;1.09;73.92
74552;BME280;63025;55.472;38.432;2022-10-31T03:17:34;98490.84;;;1.13;74.34
74552;BME280;63025;55.472;38.432;2022-10-31T03:20:04;98495.31;;;1.12;74.99
74552;BME280;63025;55.472;38.432;2022-10-31T03:22:33;98494.31;;;1.13;75.06
74552;BME280;63025;55.472;38.432;2022-10-31T03:25:02;98492.41;;;1.07;75.50
74552;BME280;63025;55.472;38.432;2022-10-31T03:27:34;98504.56;;;1.01;75.93
74552;BME280;63025;55.472;38.432;2022-10-31T03:30:04;98499.75;;;0.90;76.42
74552;BME280;63025;55.472;38.432;2022-10-31T03:32:52;98497.00;;;0.98;77.00
74552;BME280;63025;55.472;38.432;2022-10-31T03:35:23;98499.81;;;0.97;76.88
74552;BME280;63025;55.472;38.432;2022-10-31T03:37:52;98503.22;;;0.91;77.58
74552;BME280;63025;55.472;38.432;2022-10-31T03:40:21;98495.47;;;0.89;77.95
74552;BME280;63025;55.472;38.432;2022-10-31T03:42:57;98485.97;;;0.95;77.51
74552;BME280;63025;55.472;38.432;2022-10-31T03:45:26;98507.59;;;0.84;78.27
74552;BME280;63025;55.472;38.432;2022-10-31T03:47:56;98511.06;;;0.84;77.91
74552;BME280;63025;55.472;38.432;2022-10-31T03:50:27;98513.63;;;0.78;78.36
74552;BME280;63025;55.472;38.432;2022-10-31T03:53:07;98517.81;;;0.87;78.45
74552;BME280;63025;55.472;38.432;2022-10-31T03:55:59;98514.16;;;0.88;78.67
74552;BME280;63025;55.472;38.432;2022-10-31T03:58:40;98509.06;;;0.86;78.52
74552;BME280;63025;55.472;38.432;2022-10-31T04:01:09;98511.28;;;0.83;78.61
74552;BME280;63025;55.472;38.432;2022-10-31T04:03:39;98517.34;;;0.83;78.64
74552;BME280;63025;55.472;38.432;2022-10-31T04:06:10;98514.00;;;0.74;78.33
74552;BME280;63025;55.472;38.432;2022-10-31T04:08:51;98510.81;;;0.79;79.50
74552;BME280;63025;55.472;38.432;2022-10-31T04:11:23;98507.97;;;0.81;79.53
74552;BME280;63025;55.472;38.432;2022-10-31T04:14:11;98504.63;;;0.72;79.28
74552;BME280;63025;55.472;38.432;2022-10-31T04:16:40;98505.06;;;0.76;79.58
74552;BME280;63025;55.472;38.432;2022-10-31T04:19:08;98512.00;;;0.77;79.49
74552;BME280;63025;55.472;38.432;2022-10-31T04:21:34;98516.81;;;0.73;80.27
74552;BME280;63025;55.472;38.432;2022-10-31T04:24:00;98519.28;;;0.74;80.12
74552;BME280;63025;55.472;38.432;2022-10-31T04:26:29;98522.84;;;0.82;80.27
74552;BME280;63025;55.472;38.432;2022-10-31T04:28:55;98521.75;;;0.76;79.84
74552;BME280;63025;55.472;38.432;2022-10-31T04:31:21;98518.91;;;0.78;79.49
74552;BME280;63025;55.472;38.432;2022-10-31T04:33:48;98524.03;;;0.79;80.10
74552;BME280;63025;55.472;38.432;2022-10-31T04:36:14;98522.28;;;0.86;80.48
74552;BME280;63025;55.472;38.432;2022-10-31T04:38:41;98525.09;;;0.85;80.11
74552;BME280;63025;55.472;38.432;2022-10-31T04:41:18;98528.03;;;0.90;79.54
74552;BME280;63025;55.472;38.432;2022-10-31T04:43:54;98526.56;;;0.87;79.85
74552;BME280;63025;55.472;38.432;2022-10-31T04:46:20;98531.03;;;0.87;78.98
74552;BME280;63025;55.472;38.432;2022-10-31T04:48:46;98526.38;;;0.89;78.78
74552;BME280;63025;55.472;38.432;2022-10-31T04:51:12;98534.22;;;0.97;78.50
74552;BME280;63025;55.472;38.432;2022-10-31T04:53:40;98534.47;;;1.02;78.14
74552;BME280;63025;55.472;38.432;2022-10-31T04:56:41;98529.66;;;0.91;77.95
74552;BME280;63025;55.472;38.432;2022-10-31T04:59:15;98525.28;;;0.98;77.69
74552;BME280;63025;55.472;38.432;2022-10-31T05:01:47;98546.50;;;1.04;78.03
74552;BME280;63025;55.472;38.432;2022-10-31T05:04:13;98546.06;;;1.01;78.93
74552;BME280;63025;55.472;38.432;2022-10-31T05:06:40;98550.34;;;1.02;78.55
74552;BME280;63025;55.472;38.432;2022-10-31T05:09:07;98552.19;;;1.01;78.45
74552;BME280;63025;55.472;38.432;2022-10-31T05:11:33;98555.00;;;1.00;78.59
74552;BME280;63025;55.472;38.432;2022-10-31T05:14:10;98557.06;;;1.04;78.29
74552;BME280;63025;55.472;38.432;2022-10-31T05:17:11;98563.00;;;1.06;77.64
74552;BME280;63025;55.472;38.432;2022-10-31T05:19:55;98548.97;;;1.06;77.25
74552;BME280;63025;55.472;38.432;2022-10-31T05:22:52;98563.47;;;1.10;77.56
74552;BME280;63025;55.472;38.432;2022-10-31T05:25:20;98563.84;;;1.07;77.91
74552;BME280;63025;55.472;38.432;2022-10-31T05:27:50;98571.13;;;1.05;77.57
74552;BME280;63025;55.472;38.432;2022-10-31T05:30:19;98569.75;;;1.09;78.01
74552;BME280;63025;55.472;38.432;2022-10-31T05:32:47;98578.44;;;1.03;78.79
74552;BME280;63025;55.472;38.432;2022-10-31T05:35:42;98587.53;;;1.15;78.20
74552;BME280;63025;55.472;38.432;2022-10-31T05:38:31;98594.09;;;1.19;77.67
74552;BME280;63025;55.472;38.432;2022-10-31T05:41:04;98588.56;;;1.14;78.14
74552;BME280;63025;55.472;38.432;2022-10-31T05:43:32;98598.63;;;1.25;78.23
74552;BME280;63025;55.472;38.432;2022-10-31T05:45:59;98605.22;;;1.29;78.46
74552;BME280;63025;55.472;38.432;2022-10-31T05:48:43;98611.34;;;1.30;78.33
74552;BME280;63025;55.472;38.432;2022-10-31T05:51:41;98621.97;;;1.36;77.53
74552;BME280;63025;55.472;38.432;2022-10-31T05:54:08;98621.25;;;1.42;77.73
74552;BME280;63025;55.472;38.432;2022-10-31T05:56:37;98626.75;;;1.26;77.52
74552;BME280;63025;55.472;38.432;2022-10-31T05:59:03;98631.03;;;1.27;77.47
74552;BME280;63025;55.472;38.432;2022-10-31T06:01:28;98627.84;;;1.32;77.56
74552;BME280;63025;55.472;38.432;2022-10-31T06:03:58;98629.91;;;1.36;77.46
74552;BME280;63025;55.472;38.432;2022-10-31T06:06:24;98643.78;;;1.38;78.01
74552;BME280;63025;55.472;38.432;2022-10-31T06:08:50;98643.16;;;1.36;77.44
74552;BME280;63025;55.472;38.432;2022-10-31T06:11:22;98641.69;;;1.48;77.21
74552;BME280;63025;55.472;38.432;2022-10-31T06:14:00;98647.69;;;1.57;77.09
74552;BME280;63025;55.472;38.432;2022-10-31T06:16:51;98654.31;;;1.68;77.00
74552;BME280;63025;55.472;38.432;2022-10-31T06:19:52;98663.91;;;1.69;76.08
74552;BME280;63025;55.472;38.432;2022-10-31T06:22:20;98675.13;;;1.71;76.12
74552;BME280;63025;55.472;38.432;2022-10-31T06:24:47;98670.13;;;1.76;75.52
74552;BME280;63025;55.472;38.432;2022-10-31T06:27:34;98680.59;;;1.84;75.21
74552;BME280;63025;55.472;38.432;2022-10-31T06:30:07;98678.81;;;1.91;75.22
74552;BME280;63025;55.472;38.432;2022-10-31T06:32:35;98691.22;;;2.05;75.81
74552;BME280;63025;55.472;38.432;2022-10-31T06:35:01;98691.31;;;2.18;75.40
74552;BME280;63025;55.472;38.432;2022-10-31T06:37:29;98693.69;;;2.28;74.42
74552;BME280;63025;55.472;38.432;2022-10-31T06:40:02;98694.38;;;2.15;73.53
74552;BME280;63025;55.472;38.432;2022-10-31T06:42:31;98703.84;;;2.25;74.10
74552;BME280;63025;55.472;38.432;2022-10-31T06:45:00;98704.66;;;2.25;73.24
74552;BME280;63025;55.472;38.432;2022-10-31T06:47:50;98701.56;;;2.21;73.07
74552;BME280;63025;55.472;38.432;2022-10-31T06:50:24;98708.75;;;2.28;73.43
74552;BME280;63025;55.472;38.432;2022-10-31T06:53:07;98714.50;;;2.31;72.79
74552;BME280;63025;55.472;38.432;2022-10-31T06:55:33;98718.91;;;2.24;72.68
74552;BME280;63025;55.472;38.432;2022-10-31T06:58:00;98729.38;;;2.32;72.75
74552;BME280;63025;55.472;38.432;2022-10-31T07:00:29;98731.34;;;2.45;72.86
74552;BME280;63025;55.472;38.432;2022-10-31T07:03:05;98740.69;;;2.41;72.50
74552;BME280;63025;55.472;38.432;2022-10-31T07:05:33;98756.22;;;2.44;73.03
74552;BME280;63025;55.472;38.432;2022-10-31T07:08:01;98750.72;;;2.45;72.55
74552;BME280;63025;55.472;38.432;2022-10-31T07:10:31;98749.47;;;2.41;72.43
74552;BME280;63025;55.472;38.432;2022-10-31T07:13:05;98769.84;;;2.41;72.23
74552;BME280;63025;55.472;38.432;2022-10-31T07:15:35;98775.41;;;2.46;72.51
74552;BME280;63025;55.472;38.432;2022-10-31T07:18:07;98793.03;;;2.53;72.46
74552;BME280;63025;55.472;38.432;2022-10-31T07:20:34;98784.63;;;2.50;72.15
74552;BME280;63025;55.472;38.432;2022-10-31T07:23:01;98788.91;;;2.51;72.52
74552;BME280;63025;55.472;38.432;2022-10-31T07:25:27;98786.66;;;2.48;71.73
74552;BME280;63025;55.472;38.432;2022-10-31T07:28:07;98792.53;;;2.65;72.60
74552;BME280;63025;55.472;38.432;2022-10-31T07:30:33;98801.50;;;2.85;71.99
74552;BME280;63025;55.472;38.432;2022-10-31T07:32:59;98813.19;;;2.90;71.69
74552;BME280;63025;55.472;38.432;2022-10-31T07:35:45;98825.19;;;2.86;71.43
74552;BME280;63025;55.472;38.432;2022-10-31T07:38:18;98832.31;;;3.07;71.16
74552;BME280;63025;55.472;38.432;2022-10-31T07:40:49;98828.28;;;3.11;71.23
74552;BME280;63025;55.472;38.432;2022-10-31T07:43:16;98841.16;;;3.14;70.67
74552;BME280;63025;55.472;38.432;2022-10-31T07:46:03;98857.25;;;3.13;70.42
74552;BME280;63025;55.472;38.432;2022-10-31T07:48:47;98864.22;;;3.14;70.94
74552;BME280;63025;55.472;38.432;2022-10-31T07:51:31;98859.81;;;3.21;70.71
74552;BME280;63025;55.472;38.432;2022-10-31T07:54:14;98868.50;;;3.36;70.30
74552;BME280;63025;55.472;38.432;2022-10-31T07:56:40;98869.28;;;3.30;70.16
74552;BME280;63025;55.472;38.432;2022-10-31T07:59:06;98864.94;;;3.50;69.73
74552;BME280;63025;55.472;38.432;2022-10-31T08:01:33;98877.22;;;4.20;68.88
74552;BME280;63025;55.472;38.432;2022-10-31T08:04:31;98891.09;;;4.63;67.28
74552;BME280;63025;55.472;38.432;2022-10-31T08:07:16;98896.31;;;4.37;66.75
74552;BME280;63025;55.472;38.432;2022-10-31T08:09:47;98905.63;;;4.13;66.95
74552;BME280;63025;55.472;38.432;2022-10-31T08:12:20;98911.56;;;4.15;67.16
74552;BME280;63025;55.472;38.432;2022-10-31T08:14:46;98908.56;;;3.97;67.45
74552;BME280;63025;55.472;38.432;2022-10-31T08:17:13;98917.63;;;3.75;68.04
74552;BME280;63025;55.472;38.432;2022-10-31T08:19:47;98919.66;;;3.73;67.99
74552;BME280;63025;55.472;38.432;2022-10-31T08:22:15;98907.81;;;3.47;68.43
74552;BME280;63025;55.472;38.432;2022-10-31T08:24:41;98922.28;;;3.45;68.55
74552;BME280;63025;55.472;38.432;2022-10-31T08:27:07;98930.31;;;3.51;68.39
74552;BME280;63025;55.472;38.432;2022-10-31T08:29:33;98938.53;;;3.56;68.48
74552;BME280;63025;55.472;38.432;2022-10-31T08:32:00;98938.19;;;3.66;68.89
74552;BME280;63025;55.472;38.432;2022-10-31T08:34:44;98937.66;;;3.77;68.57
74552;BME280;63025;55.472;38.432;2022-10-31T08:37:29;98950.81;;;3.85;68.30
74552;BME280;63025;55.472;38.432;2022-10-31T08:39:55;98953.06;;;3.82;68.30
74552;BME280;63025;55.472;38.432;2022-10-31T08:42:21;98949.38;;;3.83;68.12
74552;BME280;63025;55.472;38.432;2022-10-31T08:44:47;98954.38;;;3.99;68.18
74552;BME280;63025;55.472;38.432;2022-10-31T08:47:13;98953.59;;;4.05;68.06
74552;BME280;63025;55.472;38.432;2022-10-31T08:49:39;98970.13;;;3.94;67.72
74552;BME280;63025;55.472;38.432;2022-10-31T08:52:05;98963.38;;;3.98;67.56
74552;BME280;63025;55.472;38.432;2022-10-31T08:54:36;98972.09;;;4.13;67.42
74552;BME280;63025;55.472;38.432;2022-10-31T08:57:29;98975.03;;;4.25;67.57
74552;BME280;63025;55.472;38.432;2022-10-31T08:59:56;98971.94;;;4.21;67.39
74552;BME280;63025;55.472;38.432;2022-10-31T09:02:43;98978.72;;;4.30;67.27
74552;BME280;63025;55.472;38.432;2022-10-31T09:05:09;98978.19;;;4.41;67.26
74552;BME280;63025;55.472;38.432;2022-10-31T09:07:35;98989.69;;;4.49;67.26
74552;BME280;63025;55.472;38.432;2022-10-31T09:10:03;98983.06;;;4.79;66.88
74552;BME280;63025;55.472;38.432;2022-10-31T09:12:32;98992.91;;;4.78;65.90
74552;BME280;63025;55.472;38.432;2022-10-31T09:15:16;98993.41;;;5.02;65.90
74552;BME280;63025;55.472;38.432;2022-10-31T09:17:47;98995.47;;;5.06;65.72
74552;BME280;63025;55.472;38.432;2022-10-31T09:20:28;98993.78;;;4.99;65.47
74552;BME280;63025;55.472;38.432;2022-10-31T09:22:59;98999.56;;;5.09;65.12
74552;BME280;63025;55.472;38.432;2022-10-31T09:25:26;99003.19;;;5.62;64.25
74552;BME280;63025;55.472;38.432;2022-10-31T09:28:15;99005.25;;;5.60;63.33
74552;BME280;63025;55.472;38.432;2022-10-31T09:30:42;99014.81;;;5.41;63.74
74552;BME280;63025;55.472;38.432;2022-10-31T09:33:10;99016.72;;;4.93;62.95
74552;BME280;63025;55.472;38.432;2022-10-31T09:35:40;99012.59;;;4.84;63.63
74552;BME280;63025;55.472;38.432;2022-10-31T09:38:10;99030.16;;;4.78;63.84
74552;BME280;63025;55.472;38.432;2022-10-31T09:40:49;99025.19;;;4.69;63.06
74552;BME280;63025;55.472;38.432;2022-10-31T09:43:47;99028.94;;;4.74;62.41
74552;BME280;63025;55.472;38.432;2022-10-31T09:49:12;99026.09;;;4.83;61.90
74552;BME280;63025;55.472;38.432;2022-10-31T09:52:00;99032.91;;;5.59;60.86
74552;BME280;63025;55.472;38.432;2022-10-31T09:54:35;99030.03;;;5.54;59.77
74552;BME280;63025;55.472;38.432;2022-10-31T09:57:03;99033.34;;;5.69;59.20
74552;BME280;63025;55.472;38.432;2022-10-31T09:59:37;99021.84;;;5.62;58.87
74552;BME280;63025;55.472;38.432;2022-10-31T10:02:17;99047.03;;;5.53;58.81
74552;BME280;63025;55.472;38.432;2022-10-31T10:22:40;99113.31;;;4.53;63.08
74552;BME280;63025;55.472;38.432;2022-10-31T10:30:26;99132.81;;;4.60;62.62
74552;BME280;63025;55.472;38.432;2022-10-31T10:32:59;99139.09;;;4.52;63.25
74552;BME280;63025;55.472;38.432;2022-10-31T10:38:10;99156.19;;;4.15;64.22
74552;BME280;63025;55.472;38.432;2022-10-31T10:40:40;99132.34;;;3.86;64.40
74552;BME280;63025;55.472;38.432;2022-10-31T10:43:32;99154.25;;;3.88;64.74
74552;BME280;63025;55.472;38.432;2022-10-31T10:51:45;99164.84;;;4.02;64.34
74552;BME280;63025;55.472;38.432;2022-10-31T10:59:53;99151.47;;;3.96;64.88
74552;BME280;63025;55.472;38.432;2022-10-31T11:02:23;99155.41;;;4.00;64.92
74552;BME280;63025;55.472;38.432;2022-10-31T11:04:57;99164.97;;;3.94;65.51
74552;BME280;63025;55.472;38.432;2022-10-31T11:07:25;99160.16;;;3.83;65.47
74552;BME280;63025;55.472;38.432;2022-10-31T11:10:01;99163.00;;;3.82;65.97
74552;BME280;63025;55.472;38.432;2022-10-31T11:12:30;99170.97;;;3.82;66.18
74552;BME280;63025;55.472;38.432;2022-10-31T11:15:00;99158.31;;;3.84;65.85
74552;BME280;63025;55.472;38.432;2022-10-31T11:17:35;99162.56;;;3.99;65.69
74552;BME280;63025;55.472;38.432;2022-10-31T11:22:44;99171.22;;;4.08;64.85
74552;BME280;63025;55.472;38.432;2022-10-31T11:27:45;99172.00;;;4.02;64.66
74552;BME280;63025;55.472;38.432;2022-10-31T11:30:13;99168.75;;;4.06;64.50
74552;BME280;63025;55.472;38.432;2022-10-31T11:32:47;99172.00;;;4.02;64.13
74552;BME280;63025;55.472;38.432;2022-10-31T11:35:16;99172.25;;;4.07;64.23
74552;BME280;63025;55.472;38.432;2022-10-31T11:37:45;99167.50;;;4.02;64.10
74552;BME280;63025;55.472;38.432;2022-10-31T11:40:21;99178.06;;;3.96;63.82
74552;BME280;63025;55.472;38.432;2022-10-31T11:42:49;99180.53;;;3.97;63.80
74552;BME280;63025;55.472;38.432;2022-10-31T11:45:27;99184.91;;;4.05;64.25
74552;BME280;63025;55.472;38.432;2022-10-31T11:47:56;99178.16;;;4.02;64.13
74552;BME280;63025;55.472;38.432;2022-10-31T11:50:26;99170.22;;;4.09;63.99
74552;BME280;63025;55.472;38.432;2022-10-31T11:52:53;99163.44;;;4.06;63.70
74552;BME280;63025;55.472;38.432;2022-10-31T11:55:38;99163.53;;;4.13;64.12
74552;BME280;63025;55.472;38.432;2022-10-31T11:58:21;99159.34;;;4.04;64.31
74552;BME280;63025;55.472;38.432;2022-10-31T12:00:51;99167.50;;;4.02;64.47
74552;BME280;63025;55.472;38.432;2022-10-31T12:06:22;99190.75;;;3.79;65.00
74552;BME280;63025;55.472;38.432;2022-10-31T12:08:49;99197.91;;;3.79;65.10
74552;BME280;63025;55.472;38.432;2022-10-31T12:17:39;99188.84;;;3.73;65.89
74552;BME280;63025;55.472;38.432;2022-10-31T12:35:01;99174.69;;;3.22;70.38
74552;BME280;63025;55.472;38.432;2022-10-31T12:45:56;99208.47;;;3.13;73.03
74552;BME280;63025;55.472;38.432;2022-10-31T12:57:39;99201.66;;;2.81;75.52
74552;BME280;63025;55.472;38.432;2022-10-31T13:00:14;99220.72;;;2.85;75.37
74552;BME280;63025;55.472;38.432;2022-10-31T13:02:54;99212.50;;;2.94;75.88
74552;BME280;63025;55.472;38.432;2022-10-31T13:05:30;99215.22;;;2.86;75.70
74552;BME280;63025;55.472;38.432;2022-10-31T13:08:06;99225.28;;;2.91;75.61
74552;BME280;63025;55.472;38.432;2022-10-31T13:10:47;99225.13;;;2.92;75.50
74552;BME280;63025;55.472;38.432;2022-10-31T13:13:36;99232.91;;;2.94;75.11
74552;BME280;63025;55.472;38.432;2022-10-31T13:18:58;99228.16;;;3.04;75.34
74552;BME280;63025;55.472;38.432;2022-10-31T13:25:02;99238.25;;;3.09;75.02
74552;BME280;63025;55.472;38.432;2022-10-31T13:27:35;99228.72;;;3.14;74.32
74552;BME280;63025;55.472;38.432;2022-10-31T13:30:13;99247.13;;;3.16;74.24
74552;BME280;63025;55.472;38.432;2022-10-31T13:33:03;99239.81;;;3.18;74.05
74552;BME280;63025;55.472;38.432;2022-10-31T13:35:36;99245.38;;;3.23;74.03
74552;BME280;63025;55.472;38.432;2022-10-31T13:38:09;99255.94;;;3.31;74.14
74552;BME280;63025;55.472;38.432;2022-10-31T13:40:50;99263.25;;;3.29;74.26
74552;BME280;63025;55.472;38.432;2022-10-31T13:43:31;99257.47;;;3.25;74.31
74552;BME280;63025;55.472;38.432;2022-10-31T13:46:00;99252.00;;;3.27;74.82
74552;BME280;63025;55.472;38.432;2022-10-31T13:48:39;99269.56;;;3.28;74.93
74552;BME280;63025;55.472;38.432;2022-10-31T13:51:09;99264.34;;;3.20;75.14
74552;BME280;63025;55.472;38.432;2022-10-31T14:01:35;99289.16;;;3.27;76.13
74552;BME280;63025;55.472;38.432;2022-10-31T14:09:27;99287.16;;;3.29;76.09
74552;BME280;63025;55.472;38.432;2022-10-31T14:11:54;99283.50;;;3.30;75.81
74552;BME280;63025;55.472;38.432;2022-10-31T14:14:32;99288.06;;;3.36;75.86
74552;BME280;63025;55.472;38.432;2022-10-31T14:16:59;99276.78;;;3.34;76.00
74552;BME280;63025;55.472;38.432;2022-10-31T14:19:25;99290.81;;;3.28;75.58
74552;BME280;63025;55.472;38.432;2022-10-31T14:21:52;99294.94;;;3.30;75.63
74552;BME280;63025;55.472;38.432;2022-10-31T14:26:59;99301.91;;;3.31;75.51
74552;BME280;63025;55.472;38.432;2022-10-31T14:29:30;99295.38;;;3.34;75.47
74552;BME280;63025;55.472;38.432;2022-10-31T14:34:29;99303.19;;;3.36;75.17
74552;BME280;63025;55.472;38.432;2022-10-31T14:50:54;99317.75;;;3.54;73.90
74552;BME280;63025;55.472;38.432;2022-10-31T14:53:38;99318.41;;;3.56;74.13
74552;BME280;63025;55.472;38.432;2022-10-31T14:56:10;99320.41;;;3.54;74.14
74552;BME280;63025;55.472;38.432;2022-10-31T14:58:44;99329.94;;;3.49;74.15
74552;BME280;63025;55.472;38.432;2022-10-31T15:01:27;99327.13;;;3.50;74.52
74552;BME280;63025;55.472;38.432;2022-10-31T15:04:15;99335.25;;;3.49;74.30
74552;BME280;63025;55.472;38.432;2022-10-31T15:06:47;99332.03;;;3.53;74.41
74552;BME280;63025;55.472;38.432;2022-10-31T15:09:29;99334.06;;;3.51;74.13
74552;BME280;63025;55.472;38.432;2022-10-31T15:12:01;99327.28;;;3.49;74.17
74552;BME280;63025;55.472;38.432;2022-10-31T15:14:40;99334.91;;;3.52;73.75
74552;BME280;63025;55.472;38.432;2022-10-31T15:17:05;99348.72;;;3.47;73.75
74552;BME280;63025;55.472;38.432;2022-10-31T15:19:33;99344.69;;;3.51;73.13
74552;BME280;63025;55.472;38.432;2022-10-31T15:22:00;99350.94;;;3.58;73.02
74552;BME280;63025;55.472;38.432;2022-10-31T15:24:33;99344.97;;;3.56;73.06
74552;BME280;63025;55.472;38.432;2022-10-31T15:27:00;99345.78;;;3.57;72.89
74552;BME280;63025;55.472;38.432;2022-10-31T15:29:27;99366.03;;;3.58;73.10
74552;BME280;63025;55.472;38.432;2022-10-31T15:31:55;99358.06;;;3.58;72.52
74552;BME280;63025;55.472;38.432;2022-10-31T15:34:28;99361.91;;;3.55;72.54
74552;BME280;63025;55.472;38.432;2022-10-31T15:36:55;99360.72;;;3.58;72.17
74552;BME280;63025;55.472;38.432;2022-10-31T15:39:21;99368.78;;;3.64;72.23
74552;BME280;63025;55.472;38.432;2022-10-31T15:47:00;99389.88;;;3.66;72.37
74552;BME280;63025;55.472;38.432;2022-10-31T15:49:38;99400.16;;;3.69;72.19
74552;BME280;63025;55.472;38.432;2022-10-31T15:52:25;99411.44;;;3.71;72.19
74552;BME280;63025;55.472;38.432;2022-10-31T15:54:57;99401.31;;;3.66;71.88
74552;BME280;63025;55.472;38.432;2022-10-31T15:57:24;99411.94;;;3.66;71.95